Strona główna
METAR-TAF:

METAR-TAF

Lotnisko :

Rugby, Dakota Północna, Stany Zjednoczone

Szerokość geograficzna: 48-23-25N, Długość geograficzna: 100-01-27W, wysokość: 472 m

Aktualna obserwacja pogody

Raport powstał 33 minut temu, godzina 21:55 UTC
Wiatr 8 kt od południe w porywach dochodzący do 14 kt
Temperatura 17°C
Wilgotność 19%
Ciśnienie 1003 hPa
Widzialność: 16.1 km
bezchmurnie

METAR: KRUG 102155Z AUTO 18008G14KT 10SM CLR 17/M07 A2961 RMK AO2

czas: 17:28 (22:28 UTC)


TAF: brakujący

Obserwacja i prognoza pogody dla ponad 4000 lotnisk (raport METAR i TAF).

Dostępne stacje oznaczono żółtymi i czerwonymi punktami na mapie.

Najedź kursorem aby zobaczyć nazwę stacji.

Kliknij aby zobaczyć obserwacje i prognozy pogody.

Aby zmienić mapę: kliknij na zielony przycisk z czarnym krzyżykiem, aby powiększyć; na zielony przycisk z myślnikiem, aby pomniejszyć; na zielone strzałki, aby przejść do map sąsiednich.


METAR-TAF: